Aérodrome :







RETROUVEZ-NOUS SUR...

 
LOGIN :

S'inscrire | Disclaimer

   EN    FR    IT 

 









Légende :    VFR   VFR Marginal   IFR   IFR Intensif   IFR Très Intensif
Visi : 
Plafond : 
>= 8 km
>= 3000ft
5 à 8 km
1000 à 3000 ft
1500m à 5 km
500 à 1000 ft
800 à 1500m
200 à 500 ft
< 800m
< 200 ft
Symboles :   Orages  Brouillard  Fortes neiges  Fortes précipitations  Vent > 20 kt






- Altitude de l'aérodrome : 40 ft
- Code IATA : YRF


CYCA - Cartwright

DERNIER METAR :
  • 171700Z AUTO 28017G27KT 9SM CLR M04/M12 A2987 RMK SLP117

METARs EXPIRÉS :
  • 171600Z AUTO 29017G27KT 9SM BKN038 M04/M11 A2986 RMK SLP114
  • 171500Z AUTO 29022G36KT 9SM BKN036 M04/M10 A2984 RMK SLP108

TAF AMD TAF CYCA
Valide du 17 à 14h jusqu'au 18 à 02h UTC


171341Z 1714/1802 30020G35KT P6SM SCT030
TEMPO 1714/1716 BKN030
BECMG 1716/1718 30015G30KT
FM172000 30015G30KT P6SM SCT030
BECMG 1723/1801 27015G25KT RMK FCST BASED ON AUTO OBS. NXT FCST BY 172000Z



MET'MAP, la Météo Aéronautique d'un coup d'oeil ! - Copyright ORBIFLY Décembre 2007 - Disclaimer

ORBIFLY MET'MAP TEAM :

Programmation & Développement : Alexandra Zaïnal
Conception & Développement : Baudouin d'Aumeries
Co-Programmation & Développement : Marc-Olivier Méhu
Soutien technique & logistique : Manuel Goepfert

Contact : metmap@orbifly.com




SOURCES & CREDITS :

   NOAA